sensor_id;sensor_type;location;lat;lon;timestamp;P1;durP1;ratioP1;P2;durP2;ratioP2
71038;SDS011;58692;43.212;27.908;2023-05-10T00:01:24;10.52;;;5.05;;
71038;SDS011;58692;43.212;27.908;2023-05-10T00:03:50;10.93;;;4.97;;
71038;SDS011;58692;43.212;27.908;2023-05-10T00:06:16;12.90;;;6.07;;
71038;SDS011;58692;43.212;27.908;2023-05-10T00:08:41;12.40;;;5.87;;
71038;SDS011;58692;43.212;27.908;2023-05-10T00:11:07;13.10;;;5.83;;
71038;SDS011;58692;43.212;27.908;2023-05-10T00:13:32;17.50;;;6.03;;
71038;SDS011;58692;43.212;27.908;2023-05-10T00:15:58;15.13;;;6.60;;
71038;SDS011;58692;43.212;27.908;2023-05-10T00:18:23;14.47;;;6.70;;
71038;SDS011;58692;43.212;27.908;2023-05-10T00:20:49;14.53;;;6.53;;
71038;SDS011;58692;43.212;27.908;2023-05-10T00:23:14;12.23;;;6.10;;
71038;SDS011;58692;43.212;27.908;2023-05-10T00:25:40;12.50;;;7.00;;
71038;SDS011;58692;43.212;27.908;2023-05-10T00:28:05;16.87;;;10.17;;
71038;SDS011;58692;43.212;27.908;2023-05-10T00:30:31;20.33;;;10.57;;
71038;SDS011;58692;43.212;27.908;2023-05-10T00:32:56;22.30;;;12.83;;
71038;SDS011;58692;43.212;27.908;2023-05-10T00:35:22;20.08;;;12.38;;
71038;SDS011;58692;43.212;27.908;2023-05-10T00:37:48;18.13;;;10.80;;
71038;SDS011;58692;43.212;27.908;2023-05-10T00:40:13;13.80;;;8.00;;
71038;SDS011;58692;43.212;27.908;2023-05-10T00:42:39;14.43;;;6.50;;
71038;SDS011;58692;43.212;27.908;2023-05-10T00:45:05;12.40;;;6.30;;
71038;SDS011;58692;43.212;27.908;2023-05-10T00:47:31;14.07;;;6.18;;
71038;SDS011;58692;43.212;27.908;2023-05-10T00:49:57;11.03;;;5.70;;
71038;SDS011;58692;43.212;27.908;2023-05-10T00:52:25;12.30;;;6.03;;
71038;SDS011;58692;43.212;27.908;2023-05-10T00:54:52;11.68;;;6.15;;
71038;SDS011;58692;43.212;27.908;2023-05-10T00:57:18;12.48;;;5.93;;
71038;SDS011;58692;43.212;27.908;2023-05-10T00:59:43;12.50;;;6.23;;
71038;SDS011;58692;43.212;27.908;2023-05-10T01:02:09;12.52;;;6.32;;
71038;SDS011;58692;43.212;27.908;2023-05-10T01:04:35;10.70;;;5.50;;
71038;SDS011;58692;43.212;27.908;2023-05-10T01:07:01;13.00;;;5.73;;
71038;SDS011;58692;43.212;27.908;2023-05-10T01:09:27;14.60;;;5.70;;
71038;SDS011;58692;43.212;27.908;2023-05-10T01:11:53;12.80;;;5.32;;
71038;SDS011;58692;43.212;27.908;2023-05-10T01:14:19;12.27;;;5.85;;
71038;SDS011;58692;43.212;27.908;2023-05-10T01:16:47;11.67;;;5.90;;
71038;SDS011;58692;43.212;27.908;2023-05-10T01:22:01;13.95;;;6.50;;
71038;SDS011;58692;43.212;27.908;2023-05-10T01:24:40;12.57;;;6.75;;
71038;SDS011;58692;43.212;27.908;2023-05-10T01:35:17;12.57;;;6.28;;
71038;SDS011;58692;43.212;27.908;2023-05-10T01:37:59;13.02;;;6.35;;
71038;SDS011;58692;43.212;27.908;2023-05-10T01:40:35;11.98;;;5.93;;
71038;SDS011;58692;43.212;27.908;2023-05-10T01:43:08;12.30;;;6.43;;
71038;SDS011;58692;43.212;27.908;2023-05-10T01:45:47;9.75;;;5.28;;
71038;SDS011;58692;43.212;27.908;2023-05-10T01:48:19;12.80;;;5.75;;
71038;SDS011;58692;43.212;27.908;2023-05-10T01:50:46;10.73;;;5.75;;
71038;SDS011;58692;43.212;27.908;2023-05-10T01:53:13;14.63;;;5.40;;
71038;SDS011;58692;43.212;27.908;2023-05-10T01:55:43;11.47;;;5.37;;
71038;SDS011;58692;43.212;27.908;2023-05-10T01:58:13;11.50;;;6.18;;
71038;SDS011;58692;43.212;27.908;2023-05-10T02:00:42;15.05;;;5.80;;
71038;SDS011;58692;43.212;27.908;2023-05-10T02:03:09;13.48;;;6.20;;
71038;SDS011;58692;43.212;27.908;2023-05-10T02:05:37;13.48;;;6.10;;
71038;SDS011;58692;43.212;27.908;2023-05-10T02:08:05;16.20;;;5.67;;
71038;SDS011;58692;43.212;27.908;2023-05-10T02:10:32;15.05;;;6.28;;
71038;SDS011;58692;43.212;27.908;2023-05-10T02:12:59;11.23;;;5.80;;
71038;SDS011;58692;43.212;27.908;2023-05-10T02:15:27;13.27;;;5.88;;
71038;SDS011;58692;43.212;27.908;2023-05-10T02:17:55;13.32;;;6.28;;
71038;SDS011;58692;43.212;27.908;2023-05-10T02:20:22;12.33;;;5.90;;
71038;SDS011;58692;43.212;27.908;2023-05-10T02:22:50;17.83;;;6.78;;
71038;SDS011;58692;43.212;27.908;2023-05-10T02:25:18;13.43;;;6.20;;
71038;SDS011;58692;43.212;27.908;2023-05-10T02:27:45;12.95;;;6.35;;
71038;SDS011;58692;43.212;27.908;2023-05-10T02:30:12;12.85;;;6.75;;
71038;SDS011;58692;43.212;27.908;2023-05-10T02:32:38;12.63;;;6.33;;
71038;SDS011;58692;43.212;27.908;2023-05-10T02:35:05;11.77;;;6.22;;
71038;SDS011;58692;43.212;27.908;2023-05-10T02:37:31;12.82;;;6.80;;
71038;SDS011;58692;43.212;27.908;2023-05-10T02:39:59;13.68;;;6.70;;
71038;SDS011;58692;43.212;27.908;2023-05-10T02:42:29;13.18;;;6.57;;
71038;SDS011;58692;43.212;27.908;2023-05-10T02:44:56;13.20;;;6.50;;
71038;SDS011;58692;43.212;27.908;2023-05-10T02:47:26;13.57;;;6.55;;
71038;SDS011;58692;43.212;27.908;2023-05-10T02:49:52;15.02;;;7.07;;
71038;SDS011;58692;43.212;27.908;2023-05-10T02:52:21;13.38;;;6.43;;
71038;SDS011;58692;43.212;27.908;2023-05-10T02:54:50;12.20;;;6.73;;
71038;SDS011;58692;43.212;27.908;2023-05-10T02:57:22;14.88;;;6.50;;
71038;SDS011;58692;43.212;27.908;2023-05-10T02:59:51;12.60;;;6.28;;
71038;SDS011;58692;43.212;27.908;2023-05-10T03:02:17;15.30;;;7.07;;
71038;SDS011;58692;43.212;27.908;2023-05-10T03:04:42;11.82;;;6.55;;
71038;SDS011;58692;43.212;27.908;2023-05-10T03:07:08;17.03;;;5.77;;
71038;SDS011;58692;43.212;27.908;2023-05-10T03:09:34;12.18;;;5.95;;
71038;SDS011;58692;43.212;27.908;2023-05-10T03:15:12;10.67;;;5.83;;
71038;SDS011;58692;43.212;27.908;2023-05-10T03:17:30;11.50;;;5.88;;
71038;SDS011;58692;43.212;27.908;2023-05-10T03:20:06;12.82;;;7.07;;
71038;SDS011;58692;43.212;27.908;2023-05-10T03:23:05;13.93;;;6.15;;
71038;SDS011;58692;43.212;27.908;2023-05-10T03:25:38;12.52;;;6.22;;
71038;SDS011;58692;43.212;27.908;2023-05-10T03:28:09;12.53;;;6.23;;
71038;SDS011;58692;43.212;27.908;2023-05-10T03:30:38;15.13;;;6.90;;
71038;SDS011;58692;43.212;27.908;2023-05-10T03:33:15;12.95;;;6.07;;
71038;SDS011;58692;43.212;27.908;2023-05-10T03:36:08;14.20;;;6.60;;
71038;SDS011;58692;43.212;27.908;2023-05-10T03:38:33;10.73;;;6.00;;
71038;SDS011;58692;43.212;27.908;2023-05-10T03:40:59;12.97;;;5.87;;
71038;SDS011;58692;43.212;27.908;2023-05-10T03:43:24;10.82;;;5.85;;
71038;SDS011;58692;43.212;27.908;2023-05-10T03:45:49;13.30;;;5.80;;
71038;SDS011;58692;43.212;27.908;2023-05-10T03:48:15;11.20;;;5.30;;
71038;SDS011;58692;43.212;27.908;2023-05-10T03:50:41;11.32;;;5.60;;
71038;SDS011;58692;43.212;27.908;2023-05-10T03:53:06;10.93;;;6.07;;
71038;SDS011;58692;43.212;27.908;2023-05-10T03:55:31;10.77;;;5.53;;
71038;SDS011;58692;43.212;27.908;2023-05-10T03:57:59;9.50;;;5.35;;
71038;SDS011;58692;43.212;27.908;2023-05-10T04:00:24;10.93;;;5.90;;
71038;SDS011;58692;43.212;27.908;2023-05-10T04:02:50;12.73;;;6.03;;
71038;SDS011;58692;43.212;27.908;2023-05-10T04:05:15;11.73;;;6.03;;
71038;SDS011;58692;43.212;27.908;2023-05-10T04:07:41;10.13;;;5.57;;
71038;SDS011;58692;43.212;27.908;2023-05-10T04:10:06;10.35;;;5.70;;
71038;SDS011;58692;43.212;27.908;2023-05-10T04:12:32;11.32;;;5.40;;
71038;SDS011;58692;43.212;27.908;2023-05-10T04:14:58;12.07;;;5.10;;
71038;SDS011;58692;43.212;27.908;2023-05-10T04:17:23;11.13;;;5.20;;
71038;SDS011;58692;43.212;27.908;2023-05-10T04:19:49;14.70;;;5.30;;
71038;SDS011;58692;43.212;27.908;2023-05-10T04:22:14;13.52;;;5.70;;
71038;SDS011;58692;43.212;27.908;2023-05-10T04:24:40;16.35;;;5.60;;
71038;SDS011;58692;43.212;27.908;2023-05-10T04:27:06;10.73;;;5.33;;
71038;SDS011;58692;43.212;27.908;2023-05-10T04:29:34;9.98;;;4.65;;
71038;SDS011;58692;43.212;27.908;2023-05-10T04:32:00;10.50;;;4.70;;
71038;SDS011;58692;43.212;27.908;2023-05-10T04:34:25;11.57;;;5.00;;
71038;SDS011;58692;43.212;27.908;2023-05-10T04:36:51;9.98;;;4.45;;
71038;SDS011;58692;43.212;27.908;2023-05-10T04:39:19;11.17;;;5.27;;
71038;SDS011;58692;43.212;27.908;2023-05-10T04:41:53;11.45;;;4.30;;
71038;SDS011;58692;43.212;27.908;2023-05-10T04:44:19;9.07;;;4.63;;
71038;SDS011;58692;43.212;27.908;2023-05-10T04:46:44;9.32;;;4.57;;
71038;SDS011;58692;43.212;27.908;2023-05-10T04:49:10;8.50;;;4.50;;
71038;SDS011;58692;43.212;27.908;2023-05-10T04:51:36;9.13;;;3.72;;
71038;SDS011;58692;43.212;27.908;2023-05-10T04:54:02;8.63;;;3.87;;
71038;SDS011;58692;43.212;27.908;2023-05-10T04:56:27;12.23;;;4.00;;
71038;SDS011;58692;43.212;27.908;2023-05-10T04:58:53;7.33;;;3.77;;
71038;SDS011;58692;43.212;27.908;2023-05-10T05:01:18;9.67;;;4.00;;
71038;SDS011;58692;43.212;27.908;2023-05-10T05:03:46;7.88;;;3.72;;
71038;SDS011;58692;43.212;27.908;2023-05-10T05:06:12;8.27;;;3.85;;
71038;SDS011;58692;43.212;27.908;2023-05-10T05:08:38;6.60;;;3.30;;
71038;SDS011;58692;43.212;27.908;2023-05-10T05:11:03;7.72;;;3.50;;
71038;SDS011;58692;43.212;27.908;2023-05-10T05:13:32;5.87;;;2.90;;
71038;SDS011;58692;43.212;27.908;2023-05-10T05:16:16;9.48;;;3.17;;
71038;SDS011;58692;43.212;27.908;2023-05-10T05:18:41;7.07;;;3.33;;
71038;SDS011;58692;43.212;27.908;2023-05-10T05:21:14;6.20;;;3.00;;
71038;SDS011;58692;43.212;27.908;2023-05-10T05:23:42;5.43;;;3.07;;
71038;SDS011;58692;43.212;27.908;2023-05-10T05:26:10;6.70;;;3.50;;
71038;SDS011;58692;43.212;27.908;2023-05-10T05:28:36;7.72;;;3.50;;
71038;SDS011;58692;43.212;27.908;2023-05-10T05:31:04;7.73;;;3.47;;
71038;SDS011;58692;43.212;27.908;2023-05-10T05:33:30;9.02;;;3.30;;
71038;SDS011;58692;43.212;27.908;2023-05-10T05:35:56;6.43;;;3.45;;
71038;SDS011;58692;43.212;27.908;2023-05-10T05:38:21;9.40;;;3.30;;
71038;SDS011;58692;43.212;27.908;2023-05-10T05:40:47;6.47;;;3.00;;
71038;SDS011;58692;43.212;27.908;2023-05-10T05:43:12;8.93;;;3.20;;
71038;SDS011;58692;43.212;27.908;2023-05-10T05:45:38;6.15;;;3.00;;
71038;SDS011;58692;43.212;27.908;2023-05-10T05:48:04;8.77;;;3.30;;
71038;SDS011;58692;43.212;27.908;2023-05-10T05:50:30;6.95;;;3.20;;
71038;SDS011;58692;43.212;27.908;2023-05-10T05:52:55;6.87;;;3.40;;
71038;SDS011;58692;43.212;27.908;2023-05-10T05:55:22;6.30;;;2.70;;
71038;SDS011;58692;43.212;27.908;2023-05-10T05:57:50;7.67;;;3.40;;
71038;SDS011;58692;43.212;27.908;2023-05-10T06:00:18;5.22;;;2.97;;
71038;SDS011;58692;43.212;27.908;2023-05-10T06:02:44;7.17;;;3.43;;
71038;SDS011;58692;43.212;27.908;2023-05-10T06:05:15;7.68;;;3.10;;
71038;SDS011;58692;43.212;27.908;2023-05-10T06:07:41;5.90;;;3.07;;
71038;SDS011;58692;43.212;27.908;2023-05-10T06:10:08;8.23;;;3.83;;
71038;SDS011;58692;43.212;27.908;2023-05-10T06:12:34;7.25;;;3.20;;
71038;SDS011;58692;43.212;27.908;2023-05-10T06:14:59;7.15;;;3.30;;
71038;SDS011;58692;43.212;27.908;2023-05-10T06:17:25;7.93;;;3.17;;
71038;SDS011;58692;43.212;27.908;2023-05-10T06:19:51;8.88;;;3.92;;
71038;SDS011;58692;43.212;27.908;2023-05-10T06:22:16;8.50;;;3.60;;
71038;SDS011;58692;43.212;27.908;2023-05-10T06:24:42;6.53;;;3.28;;
71038;SDS011;58692;43.212;27.908;2023-05-10T06:27:08;7.80;;;3.43;;
71038;SDS011;58692;43.212;27.908;2023-05-10T06:29:34;10.30;;;3.60;;
71038;SDS011;58692;43.212;27.908;2023-05-10T06:32:02;9.90;;;3.70;;
71038;SDS011;58692;43.212;27.908;2023-05-10T06:34:34;7.80;;;3.45;;
71038;SDS011;58692;43.212;27.908;2023-05-10T06:37:00;8.40;;;3.37;;
71038;SDS011;58692;43.212;27.908;2023-05-10T06:39:29;10.67;;;3.70;;
71038;SDS011;58692;43.212;27.908;2023-05-10T06:41:54;7.07;;;3.40;;
71038;SDS011;58692;43.212;27.908;2023-05-10T06:44:24;7.60;;;3.97;;
71038;SDS011;58692;43.212;27.908;2023-05-10T06:46:50;7.53;;;3.50;;
71038;SDS011;58692;43.212;27.908;2023-05-10T06:49:20;7.47;;;3.53;;
71038;SDS011;58692;43.212;27.908;2023-05-10T06:51:46;6.20;;;3.05;;
71038;SDS011;58692;43.212;27.908;2023-05-10T06:54:12;8.97;;;3.70;;
71038;SDS011;58692;43.212;27.908;2023-05-10T06:56:37;5.82;;;3.30;;
71038;SDS011;58692;43.212;27.908;2023-05-10T06:59:03;7.00;;;3.10;;
71038;SDS011;58692;43.212;27.908;2023-05-10T07:01:28;7.13;;;3.47;;
71038;SDS011;58692;43.212;27.908;2023-05-10T07:03:54;6.85;;;3.10;;
71038;SDS011;58692;43.212;27.908;2023-05-10T07:06:19;8.57;;;3.47;;
71038;SDS011;58692;43.212;27.908;2023-05-10T07:08:45;8.07;;;3.60;;
71038;SDS011;58692;43.212;27.908;2023-05-10T07:11:10;6.67;;;3.40;;
71038;SDS011;58692;43.212;27.908;2023-05-10T07:13:36;9.77;;;3.35;;
71038;SDS011;58692;43.212;27.908;2023-05-10T07:16:03;9.55;;;3.40;;
71038;SDS011;58692;43.212;27.908;2023-05-10T07:18:29;7.83;;;3.53;;
71038;SDS011;58692;43.212;27.908;2023-05-10T07:20:54;7.30;;;3.40;;
71038;SDS011;58692;43.212;27.908;2023-05-10T07:23:30;7.33;;;3.40;;
71038;SDS011;58692;43.212;27.908;2023-05-10T07:25:55;5.90;;;3.40;;
71038;SDS011;58692;43.212;27.908;2023-05-10T07:28:22;7.32;;;3.22;;
71038;SDS011;58692;43.212;27.908;2023-05-10T07:30:53;9.15;;;3.30;;
71038;SDS011;58692;43.212;27.908;2023-05-10T07:33:18;6.33;;;2.97;;
71038;SDS011;58692;43.212;27.908;2023-05-10T07:35:44;9.50;;;3.22;;
71038;SDS011;58692;43.212;27.908;2023-05-10T07:38:10;7.70;;;3.23;;
71038;SDS011;58692;43.212;27.908;2023-05-10T07:40:36;5.95;;;3.25;;
71038;SDS011;58692;43.212;27.908;2023-05-10T07:43:03;6.80;;;3.45;;
71038;SDS011;58692;43.212;27.908;2023-05-10T07:45:28;5.47;;;2.80;;
71038;SDS011;58692;43.212;27.908;2023-05-10T07:47:54;6.77;;;3.40;;
71038;SDS011;58692;43.212;27.908;2023-05-10T07:50:20;6.23;;;3.30;;
71038;SDS011;58692;43.212;27.908;2023-05-10T07:52:46;6.85;;;2.80;;
71038;SDS011;58692;43.212;27.908;2023-05-10T07:55:13;5.82;;;2.72;;
71038;SDS011;58692;43.212;27.908;2023-05-10T07:57:48;8.00;;;3.17;;
71038;SDS011;58692;43.212;27.908;2023-05-10T08:02:56;6.88;;;3.20;;
71038;SDS011;58692;43.212;27.908;2023-05-10T08:05:22;6.07;;;3.20;;
71038;SDS011;58692;43.212;27.908;2023-05-10T08:07:47;8.33;;;3.20;;
71038;SDS011;58692;43.212;27.908;2023-05-10T08:10:13;5.15;;;2.88;;
71038;SDS011;58692;43.212;27.908;2023-05-10T08:12:39;5.40;;;3.00;;
71038;SDS011;58692;43.212;27.908;2023-05-10T08:15:05;6.70;;;2.73;;
71038;SDS011;58692;43.212;27.908;2023-05-10T08:17:31;4.45;;;2.78;;
71038;SDS011;58692;43.212;27.908;2023-05-10T08:19:57;8.97;;;3.23;;
71038;SDS011;58692;43.212;27.908;2023-05-10T08:22:23;7.72;;;3.58;;
71038;SDS011;58692;43.212;27.908;2023-05-10T08:24:48;4.20;;;2.60;;
71038;SDS011;58692;43.212;27.908;2023-05-10T08:27:14;5.57;;;2.80;;
71038;SDS011;58692;43.212;27.908;2023-05-10T08:29:39;7.22;;;2.88;;
71038;SDS011;58692;43.212;27.908;2023-05-10T08:32:05;9.93;;;3.40;;
71038;SDS011;58692;43.212;27.908;2023-05-10T08:34:30;7.13;;;2.90;;
71038;SDS011;58692;43.212;27.908;2023-05-10T08:36:56;8.03;;;3.00;;
71038;SDS011;58692;43.212;27.908;2023-05-10T08:39:22;6.35;;;2.85;;
71038;SDS011;58692;43.212;27.908;2023-05-10T08:41:48;5.25;;;2.80;;
71038;SDS011;58692;43.212;27.908;2023-05-10T08:44:19;5.83;;;2.97;;
71038;SDS011;58692;43.212;27.908;2023-05-10T08:46:47;11.05;;;3.63;;
71038;SDS011;58692;43.212;27.908;2023-05-10T08:49:20;7.00;;;2.80;;
71038;SDS011;58692;43.212;27.908;2023-05-10T08:51:48;5.13;;;2.85;;
71038;SDS011;58692;43.212;27.908;2023-05-10T08:54:16;5.50;;;3.08;;
71038;SDS011;58692;43.212;27.908;2023-05-10T08:56:42;5.90;;;3.10;;
71038;SDS011;58692;43.212;27.908;2023-05-10T08:59:08;7.45;;;3.08;;
71038;SDS011;58692;43.212;27.908;2023-05-10T09:01:55;5.80;;;2.92;;
71038;SDS011;58692;43.212;27.908;2023-05-10T09:04:22;6.07;;;2.70;;
71038;SDS011;58692;43.212;27.908;2023-05-10T09:06:48;6.85;;;3.00;;
71038;SDS011;58692;43.212;27.908;2023-05-10T09:09:17;6.40;;;3.13;;
71038;SDS011;58692;43.212;27.908;2023-05-10T09:11:44;6.05;;;3.00;;
71038;SDS011;58692;43.212;27.908;2023-05-10T09:14:10;9.15;;;3.10;;
71038;SDS011;58692;43.212;27.908;2023-05-10T09:16:37;5.53;;;3.23;;
71038;SDS011;58692;43.212;27.908;2023-05-10T09:19:03;7.80;;;3.20;;
71038;SDS011;58692;43.212;27.908;2023-05-10T09:21:29;5.68;;;3.10;;
71038;SDS011;58692;43.212;27.908;2023-05-10T09:23:56;5.63;;;3.00;;
71038;SDS011;58692;43.212;27.908;2023-05-10T09:26:22;7.00;;;3.05;;
71038;SDS011;58692;43.212;27.908;2023-05-10T09:28:53;6.47;;;3.30;;
71038;SDS011;58692;43.212;27.908;2023-05-10T09:31:22;5.40;;;2.95;;
71038;SDS011;58692;43.212;27.908;2023-05-10T09:33:50;6.38;;;3.00;;
71038;SDS011;58692;43.212;27.908;2023-05-10T09:36:16;6.25;;;2.92;;
71038;SDS011;58692;43.212;27.908;2023-05-10T09:38:50;5.93;;;3.10;;
71038;SDS011;58692;43.212;27.908;2023-05-10T09:41:19;6.55;;;3.20;;
71038;SDS011;58692;43.212;27.908;2023-05-10T09:43:47;7.18;;;3.28;;
71038;SDS011;58692;43.212;27.908;2023-05-10T09:46:13;6.07;;;3.22;;
71038;SDS011;58692;43.212;27.908;2023-05-10T09:48:42;6.80;;;3.40;;
71038;SDS011;58692;43.212;27.908;2023-05-10T09:51:09;6.17;;;3.07;;
71038;SDS011;58692;43.212;27.908;2023-05-10T09:53:35;6.00;;;3.40;;
71038;SDS011;58692;43.212;27.908;2023-05-10T09:56:01;8.93;;;3.40;;
71038;SDS011;58692;43.212;27.908;2023-05-10T09:58:30;6.50;;;3.17;;
71038;SDS011;58692;43.212;27.908;2023-05-10T10:00:59;6.32;;;2.88;;
71038;SDS011;58692;43.212;27.908;2023-05-10T10:03:24;5.88;;;3.15;;
71038;SDS011;58692;43.212;27.908;2023-05-10T10:05:50;6.68;;;3.22;;
71038;SDS011;58692;43.212;27.908;2023-05-10T10:08:16;8.03;;;3.13;;
71038;SDS011;58692;43.212;27.908;2023-05-10T10:10:42;7.20;;;3.13;;
71038;SDS011;58692;43.212;27.908;2023-05-10T10:13:14;7.32;;;2.88;;
71038;SDS011;58692;43.212;27.908;2023-05-10T10:15:56;7.13;;;3.42;;
71038;SDS011;58692;43.212;27.908;2023-05-10T10:18:22;6.65;;;3.03;;
71038;SDS011;58692;43.212;27.908;2023-05-10T10:20:52;6.97;;;3.10;;
71038;SDS011;58692;43.212;27.908;2023-05-10T10:23:19;6.55;;;2.92;;
71038;SDS011;58692;43.212;27.908;2023-05-10T10:25:45;7.47;;;3.10;;
71038;SDS011;58692;43.212;27.908;2023-05-10T10:30:42;6.57;;;3.38;;
71038;SDS011;58692;43.212;27.908;2023-05-10T10:35:59;5.53;;;2.95;;
71038;SDS011;58692;43.212;27.908;2023-05-10T10:52:13;5.90;;;3.30;;
71038;SDS011;58692;43.212;27.908;2023-05-10T11:01:11;6.75;;;2.75;;
71038;SDS011;58692;43.212;27.908;2023-05-10T11:10:26;5.83;;;2.90;;
71038;SDS011;58692;43.212;27.908;2023-05-10T11:15:19;6.22;;;2.80;;
71038;SDS011;58692;43.212;27.908;2023-05-10T11:17:45;4.85;;;2.55;;
71038;SDS011;58692;43.212;27.908;2023-05-10T11:20:16;8.10;;;2.83;;
71038;SDS011;58692;43.212;27.908;2023-05-10T11:22:53;5.57;;;2.70;;
71038;SDS011;58692;43.212;27.908;2023-05-10T11:25:28;5.38;;;2.63;;
71038;SDS011;58692;43.212;27.908;2023-05-10T11:28:00;9.40;;;3.10;;
71038;SDS011;58692;43.212;27.908;2023-05-10T11:30:31;5.82;;;2.90;;
71038;SDS011;58692;43.212;27.908;2023-05-10T11:32:56;6.40;;;3.23;;
71038;SDS011;58692;43.212;27.908;2023-05-10T11:35:22;5.10;;;2.80;;
71038;SDS011;58692;43.212;27.908;2023-05-10T11:37:47;5.90;;;2.90;;
71038;SDS011;58692;43.212;27.908;2023-05-10T11:40:13;5.05;;;3.25;;
71038;SDS011;58692;43.212;27.908;2023-05-10T11:42:39;5.87;;;3.00;;
71038;SDS011;58692;43.212;27.908;2023-05-10T11:45:05;6.45;;;2.90;;
71038;SDS011;58692;43.212;27.908;2023-05-10T11:47:31;9.10;;;3.40;;
71038;SDS011;58692;43.212;27.908;2023-05-10T11:49:57;7.07;;;3.00;;
71038;SDS011;58692;43.212;27.908;2023-05-10T11:52:35;6.55;;;3.30;;
71038;SDS011;58692;43.212;27.908;2023-05-10T11:55:02;6.10;;;3.28;;
71038;SDS011;58692;43.212;27.908;2023-05-10T11:57:28;6.03;;;2.75;;
71038;SDS011;58692;43.212;27.908;2023-05-10T11:59:54;8.37;;;3.40;;
71038;SDS011;58692;43.212;27.908;2023-05-10T12:02:21;6.38;;;2.90;;
71038;SDS011;58692;43.212;27.908;2023-05-10T12:04:46;6.50;;;2.83;;
71038;SDS011;58692;43.212;27.908;2023-05-10T12:07:13;6.65;;;3.40;;
71038;SDS011;58692;43.212;27.908;2023-05-10T12:09:42;5.85;;;2.83;;
71038;SDS011;58692;43.212;27.908;2023-05-10T12:12:09;5.83;;;2.90;;
71038;SDS011;58692;43.212;27.908;2023-05-10T12:14:40;8.80;;;3.20;;
71038;SDS011;58692;43.212;27.908;2023-05-10T12:17:05;8.30;;;3.63;;
71038;SDS011;58692;43.212;27.908;2023-05-10T12:19:38;6.43;;;2.90;;
71038;SDS011;58692;43.212;27.908;2023-05-10T12:22:05;5.88;;;3.30;;
71038;SDS011;58692;43.212;27.908;2023-05-10T12:24:33;5.97;;;3.28;;
71038;SDS011;58692;43.212;27.908;2023-05-10T12:27:00;7.10;;;3.90;;
71038;SDS011;58692;43.212;27.908;2023-05-10T12:29:30;6.43;;;3.20;;
71038;SDS011;58692;43.212;27.908;2023-05-10T12:31:57;7.07;;;2.90;;
71038;SDS011;58692;43.212;27.908;2023-05-10T12:34:24;8.10;;;3.00;;
71038;SDS011;58692;43.212;27.908;2023-05-10T12:36:55;5.83;;;3.30;;
71038;SDS011;58692;43.212;27.908;2023-05-10T12:39:20;6.57;;;3.00;;
71038;SDS011;58692;43.212;27.908;2023-05-10T12:41:46;6.87;;;3.13;;
71038;SDS011;58692;43.212;27.908;2023-05-10T12:44:12;6.28;;;3.35;;
71038;SDS011;58692;43.212;27.908;2023-05-10T12:46:37;4.97;;;2.83;;
71038;SDS011;58692;43.212;27.908;2023-05-10T12:49:03;6.00;;;3.00;;
71038;SDS011;58692;43.212;27.908;2023-05-10T12:51:28;9.40;;;3.30;;
71038;SDS011;58692;43.212;27.908;2023-05-10T12:53:54;5.73;;;3.00;;
71038;SDS011;58692;43.212;27.908;2023-05-10T12:56:20;5.07;;;2.88;;
71038;SDS011;58692;43.212;27.908;2023-05-10T12:58:46;6.50;;;3.30;;
71038;SDS011;58692;43.212;27.908;2023-05-10T13:01:13;8.13;;;3.47;;
71038;SDS011;58692;43.212;27.908;2023-05-10T13:03:39;6.60;;;3.50;;
71038;SDS011;58692;43.212;27.908;2023-05-10T13:06:05;6.07;;;2.78;;
71038;SDS011;58692;43.212;27.908;2023-05-10T13:08:31;8.23;;;3.17;;
71038;SDS011;58692;43.212;27.908;2023-05-10T13:11:00;8.60;;;2.78;;
71038;SDS011;58692;43.212;27.908;2023-05-10T13:16:16;7.85;;;2.72;;
71038;SDS011;58692;43.212;27.908;2023-05-10T13:18:45;6.10;;;2.78;;
71038;SDS011;58692;43.212;27.908;2023-05-10T13:21:10;7.40;;;2.90;;
71038;SDS011;58692;43.212;27.908;2023-05-10T13:23:39;6.30;;;2.72;;
71038;SDS011;58692;43.212;27.908;2023-05-10T13:26:05;8.18;;;3.00;;
71038;SDS011;58692;43.212;27.908;2023-05-10T13:28:30;5.40;;;2.50;;
71038;SDS011;58692;43.212;27.908;2023-05-10T13:30:56;8.17;;;3.00;;
71038;SDS011;58692;43.212;27.908;2023-05-10T13:33:22;9.27;;;2.67;;
71038;SDS011;58692;43.212;27.908;2023-05-10T13:35:53;5.00;;;2.50;;
71038;SDS011;58692;43.212;27.908;2023-05-10T13:38:18;6.03;;;2.70;;
71038;SDS011;58692;43.212;27.908;2023-05-10T13:40:44;7.22;;;3.05;;
71038;SDS011;58692;43.212;27.908;2023-05-10T13:43:10;4.80;;;2.50;;
71038;SDS011;58692;43.212;27.908;2023-05-10T13:45:35;4.57;;;2.33;;
71038;SDS011;58692;43.212;27.908;2023-05-10T13:48:04;9.97;;;3.47;;
71038;SDS011;58692;43.212;27.908;2023-05-10T13:50:51;7.10;;;2.92;;
71038;SDS011;58692;43.212;27.908;2023-05-10T13:53:17;6.70;;;2.80;;
71038;SDS011;58692;43.212;27.908;2023-05-10T13:58:55;7.70;;;2.95;;
71038;SDS011;58692;43.212;27.908;2023-05-10T14:01:23;8.67;;;3.20;;
71038;SDS011;58692;43.212;27.908;2023-05-10T14:04:01;5.80;;;2.90;;
71038;SDS011;58692;43.212;27.908;2023-05-10T14:06:33;6.20;;;2.83;;
71038;SDS011;58692;43.212;27.908;2023-05-10T14:09:00;5.90;;;2.60;;
71038;SDS011;58692;43.212;27.908;2023-05-10T14:11:26;9.57;;;3.13;;
71038;SDS011;58692;43.212;27.908;2023-05-10T14:13:52;10.77;;;3.33;;
71038;SDS011;58692;43.212;27.908;2023-05-10T14:16:18;6.72;;;2.85;;
71038;SDS011;58692;43.212;27.908;2023-05-10T14:18:44;6.18;;;2.63;;
71038;SDS011;58692;43.212;27.908;2023-05-10T14:21:09;5.37;;;2.67;;
71038;SDS011;58692;43.212;27.908;2023-05-10T14:23:35;6.85;;;2.30;;
71038;SDS011;58692;43.212;27.908;2023-05-10T14:26:01;6.47;;;3.13;;
71038;SDS011;58692;43.212;27.908;2023-05-10T14:28:27;6.47;;;2.80;;
71038;SDS011;58692;43.212;27.908;2023-05-10T14:30:54;8.57;;;3.17;;
71038;SDS011;58692;43.212;27.908;2023-05-10T14:33:19;8.37;;;3.50;;
71038;SDS011;58692;43.212;27.908;2023-05-10T14:35:46;7.05;;;2.85;;
71038;SDS011;58692;43.212;27.908;2023-05-10T14:38:12;7.95;;;2.80;;
71038;SDS011;58692;43.212;27.908;2023-05-10T14:40:38;5.15;;;2.60;;
71038;SDS011;58692;43.212;27.908;2023-05-10T14:43:04;6.60;;;3.03;;
71038;SDS011;58692;43.212;27.908;2023-05-10T14:45:29;5.67;;;2.73;;
71038;SDS011;58692;43.212;27.908;2023-05-10T14:47:55;5.63;;;2.50;;
71038;SDS011;58692;43.212;27.908;2023-05-10T14:50:21;7.13;;;3.07;;
71038;SDS011;58692;43.212;27.908;2023-05-10T14:55:58;7.13;;;3.30;;
71038;SDS011;58692;43.212;27.908;2023-05-10T14:58:26;7.32;;;2.85;;
71038;SDS011;58692;43.212;27.908;2023-05-10T15:00:53;5.80;;;3.23;;
71038;SDS011;58692;43.212;27.908;2023-05-10T15:03:19;8.48;;;3.25;;
71038;SDS011;58692;43.212;27.908;2023-05-10T15:05:46;8.32;;;3.20;;
71038;SDS011;58692;43.212;27.908;2023-05-10T15:08:12;5.07;;;2.70;;
71038;SDS011;58692;43.212;27.908;2023-05-10T15:10:38;9.13;;;3.42;;
71038;SDS011;58692;43.212;27.908;2023-05-10T15:13:04;8.10;;;3.47;;
71038;SDS011;58692;43.212;27.908;2023-05-10T15:15:30;6.07;;;2.90;;
71038;SDS011;58692;43.212;27.908;2023-05-10T15:17:55;7.73;;;3.17;;
71038;SDS011;58692;43.212;27.908;2023-05-10T15:20:21;7.60;;;3.92;;
71038;SDS011;58692;43.212;27.908;2023-05-10T15:22:47;8.73;;;2.97;;
71038;SDS011;58692;43.212;27.908;2023-05-10T15:25:13;6.90;;;3.20;;
71038;SDS011;58692;43.212;27.908;2023-05-10T15:27:40;6.07;;;2.90;;
71038;SDS011;58692;43.212;27.908;2023-05-10T15:30:08;5.45;;;2.85;;
71038;SDS011;58692;43.212;27.908;2023-05-10T15:32:34;8.17;;;3.10;;